createdAt,value
2022-10-01T00:01:52.043Z,66
2022-10-01T00:12:00.677Z,67
2022-10-01T00:22:08.416Z,67
2022-10-01T00:32:15.184Z,68
2022-10-01T00:42:21.785Z,68
2022-10-01T00:52:29.639Z,69
2022-10-01T01:02:36.330Z,69
2022-10-01T01:12:43.097Z,70
2022-10-01T01:22:49.759Z,70
2022-10-01T01:32:56.413Z,71
2022-10-01T01:43:03.152Z,72
2022-10-01T01:53:11.184Z,72
2022-10-01T02:03:17.942Z,72
2022-10-01T02:13:24.567Z,72
2022-10-01T02:23:31.231Z,72
2022-10-01T02:33:39.271Z,70
2022-10-01T02:43:45.411Z,69
2022-10-01T02:53:52.012Z,68
2022-10-01T03:03:58.714Z,69
2022-10-01T03:14:05.286Z,68
2022-10-01T03:24:11.972Z,67
2022-10-01T03:34:18.551Z,66
2022-10-01T03:44:25.258Z,66
2022-10-01T03:54:31.987Z,66
2022-10-01T04:04:39.420Z,64
2022-10-01T04:14:46.106Z,63
2022-10-01T04:24:52.735Z,63
2022-10-01T04:34:59.376Z,64
2022-10-01T04:45:06.001Z,63
2022-10-01T04:55:13.105Z,62
2022-10-01T05:05:20.487Z,61
2022-10-01T05:15:27.840Z,60
2022-10-01T05:25:35.224Z,60
2022-10-01T05:35:42.707Z,60
2022-10-01T05:45:50.195Z,61
2022-10-01T05:55:57.634Z,62
2022-10-01T06:06:05.115Z,62
2022-10-01T06:16:13.097Z,62
2022-10-01T06:26:20.410Z,60
2022-10-01T06:36:27.913Z,59
2022-10-01T06:46:35.400Z,58
2022-10-01T06:56:44.107Z,57
2022-10-01T07:06:51.555Z,57
2022-10-01T07:16:59.029Z,56
2022-10-01T07:27:07.807Z,54
2022-10-01T07:37:15.355Z,53
2022-10-01T07:47:22.753Z,53
2022-10-01T07:57:32.023Z,51
2022-10-01T08:07:39.469Z,47
2022-10-01T08:17:46.930Z,45
2022-10-01T08:27:54.500Z,44
2022-10-01T08:38:01.899Z,42
2022-10-01T08:48:09.508Z,42
2022-10-01T08:58:17.208Z,43
2022-10-01T09:08:24.644Z,42
2022-10-01T09:18:32.233Z,41
2022-10-01T09:28:41.062Z,40
2022-10-01T09:38:49.335Z,39
2022-10-01T09:48:56.868Z,38
2022-10-01T09:59:04.366Z,38
2022-10-01T10:09:12.210Z,37
2022-10-01T10:19:19.667Z,37
2022-10-01T10:29:27.379Z,36
2022-10-01T10:39:34.780Z,36
2022-10-01T10:49:42.472Z,35
2022-10-01T10:59:50.035Z,35
2022-10-01T11:09:57.528Z,34
2022-10-01T11:20:05.090Z,32
2022-10-01T11:30:12.191Z,32
2022-10-01T11:40:19.700Z,34
2022-10-01T11:50:27.175Z,35
2022-10-01T12:00:35.447Z,36
2022-10-01T12:10:43.058Z,35
2022-10-01T12:20:42.896Z,36
2022-10-01T12:30:50.316Z,36
2022-10-01T12:40:57.724Z,36
2022-10-01T12:51:05.290Z,37
2022-10-01T13:01:13.912Z,39
2022-10-01T13:11:22.340Z,39
2022-10-01T13:21:29.882Z,39
2022-10-01T13:31:38.521Z,38
2022-10-01T13:41:47.254Z,39
2022-10-01T13:51:56.984Z,38
2022-10-01T14:01:55.905Z,37
2022-10-01T14:11:56.676Z,36
2022-10-01T14:22:04.606Z,35
2022-10-01T14:32:13.090Z,37
2022-10-01T14:42:21.855Z,38
2022-10-01T14:52:30.497Z,37
2022-10-01T15:02:38.014Z,37
2022-10-01T15:12:45.504Z,40
2022-10-01T15:23:00.500Z,40
2022-10-01T15:32:54.272Z,41
2022-10-01T15:43:01.899Z,41
2022-10-01T15:53:09.356Z,38
2022-10-01T16:03:16.890Z,39
2022-10-01T16:13:24.310Z,41
2022-10-01T16:23:31.823Z,39
2022-10-01T16:33:39.376Z,40
2022-10-01T16:43:46.839Z,41
2022-10-01T16:53:54.247Z,42
2022-10-01T17:04:01.670Z,44
2022-10-01T17:14:09.227Z,43
2022-10-01T17:24:16.698Z,44
2022-10-01T17:34:24.160Z,46
2022-10-01T17:44:31.657Z,47
2022-10-01T17:54:39.152Z,49
2022-10-01T18:04:50.219Z,49
2022-10-01T18:14:48.508Z,50
2022-10-01T18:25:00.384Z,51
2022-10-01T18:35:01.208Z,51
2022-10-01T18:45:08.631Z,52
2022-10-01T18:55:21.256Z,51
2022-10-01T19:05:18.109Z,52
2022-10-01T19:15:26.259Z,52
2022-10-01T19:25:36.106Z,53
2022-10-01T19:35:44.635Z,53
2022-10-01T19:45:56.195Z,53
2022-10-01T19:55:59.496Z,54
2022-10-01T20:05:56.810Z,54
2022-10-01T20:16:06.268Z,54
2022-10-01T20:26:15.375Z,54
2022-10-01T20:36:22.815Z,54
2022-10-01T20:46:32.223Z,55
2022-10-01T20:56:35.564Z,54
2022-10-01T21:06:42.790Z,55
2022-10-01T21:16:51.442Z,55
2022-10-01T21:26:59.895Z,56
2022-10-01T21:37:07.246Z,57
2022-10-01T21:47:14.793Z,58
2022-10-01T21:57:23.448Z,58
2022-10-01T22:07:34.632Z,58
2022-10-01T22:17:43.540Z,57
2022-10-01T22:27:51.009Z,58
2022-10-01T22:37:59.656Z,59
2022-10-01T22:48:07.244Z,59
2022-10-01T22:58:14.803Z,60
2022-10-01T23:08:22.915Z,60
2022-10-01T23:18:29.601Z,60
2022-10-01T23:28:36.163Z,60
2022-10-01T23:38:42.833Z,61
2022-10-01T23:48:50.646Z,61
2022-10-01T23:58:57.227Z,61
